Time;durP1;ratioP1;P1;durP2;ratioP2;P2;SDS_P1;SDS_P2;PMS_P1;PMS_P2;Temp;Humidity;BMP_temperature;BMP_pressure;BME280_temperature;BME280_humidity;BME280_pressure;Samples;Min_cycle;Max_cycle;Signal;HPM_P1;HPM_P2
2022/08/02 00:00:51;;;;;;;6.43;2.50;;;22.40;99.90;;;;;;5060113;28;20194;-84
2022/08/02 00:03:17;;;;;;;5.57;2.30;;;22.40;99.90;;;;;;5067829;28;20179;-79
2022/08/02 00:05:42;;;;;;;6.53;2.43;;;22.60;99.90;;;;;;5099059;28;20170;-81
2022/08/02 00:08:08;;;;;;;5.43;2.53;;;22.60;99.90;;;;;;5097791;28;20174;-80
2022/08/02 00:10:34;;;;;;;5.77;2.40;;;22.60;99.90;;;;;;5098606;28;20220;-83
2022/08/02 00:13:01;;;;;;;6.80;2.63;;;22.60;99.90;;;;;;5075253;28;20237;-81
2022/08/02 00:15:30;;;;;;;6.07;2.40;;;22.80;99.90;;;;;;5084283;28;20193;-81
2022/08/02 00:21:19;;;;;;;6.90;2.43;;;22.70;99.90;;;;;;5076388;28;20565;-81
2022/08/02 00:23:46;;;;;;;4.57;2.70;;;22.60;99.90;;;;;;5077872;28;20170;-86
2022/08/02 00:26:12;;;;;;;5.90;2.43;;;22.60;99.90;;;;;;5076788;28;20175;-81
2022/08/02 00:28:39;;;;;;;5.80;2.30;;;22.50;99.90;;;;;;5076284;28;20223;-81
2022/08/02 00:31:06;;;;;;;6.37;2.60;;;22.40;1.00;;;;;;5074782;28;20179;-82
2022/08/02 00:33:31;;;;;;;4.90;2.20;;;22.40;1.00;;;;;;5056458;28;20201;-85
2022/08/02 00:35:57;;;;;;;5.57;2.53;;;22.30;1.00;;;;;;5074633;28;20659;-80
2022/08/02 00:38:23;;;;;;;6.23;2.77;;;22.10;1.00;;;;;;5075436;28;20567;-83
2022/08/02 00:40:50;;;;;;;4.47;2.23;;;22.20;1.00;;;;;;5075049;28;20170;-84
2022/08/02 00:43:16;;;;;;;5.03;2.30;;;22.20;1.00;;;;;;5056661;28;20229;-85
2022/08/02 00:45:42;;;;;;;5.57;2.57;;;22.30;1.00;;;;;;5057087;28;20168;-80
2022/08/02 00:48:10;;;;;;;7.07;2.93;;;22.40;99.90;;;;;;5057957;28;20548;-85
2022/08/02 00:50:37;;;;;;;5.20;2.40;;;22.30;99.90;;;;;;5056861;28;20182;-85
2022/08/02 00:53:04;;;;;;;4.70;2.80;;;22.30;1.00;;;;;;5055769;28;20276;-80
2022/08/02 00:55:30;;;;;;;5.47;2.37;;;22.40;1.00;;;;;;5074353;28;20244;-83
2022/08/02 00:57:56;;;;;;;5.87;2.60;;;22.30;1.00;;;;;;5075120;28;20246;-80
2022/08/02 01:00:22;;;;;;;5.43;2.73;;;22.40;1.00;;;;;;5056372;28;20666;-79
2022/08/02 01:02:48;;;;;;;5.40;2.27;;;22.40;1.00;;;;;;5073685;28;20172;-82
2022/08/02 01:05:14;;;;;;;4.73;2.93;;;22.40;1.00;;;;;;5073812;28;20174;-83
2022/08/02 01:07:40;;;;;;;7.90;2.83;;;22.50;99.90;;;;;;5075672;28;20174;-83
2022/08/02 01:10:07;;;;;;;5.40;2.67;;;22.50;99.90;;;;;;5056880;28;20177;-81
2022/08/02 01:12:32;;;;;;;4.17;2.50;;;22.40;99.90;;;;;;5073709;28;20171;-83
2022/08/02 01:15:02;;;;;;;5.30;2.67;;;22.10;1.00;;;;;;5056537;28;20584;-84
2022/08/02 01:17:53;;;;;;;3.97;2.40;;;22.10;1.00;;;;;;5056866;28;20213;-82
2022/08/02 01:20:48;;;;;;;4.77;2.90;;;22.00;1.00;;;;;;5088217;28;20169;-79
2022/08/02 01:23:52;;;;;;;5.77;2.70;;;22.00;1.00;;;;;;5076481;28;20199;-81
2022/08/02 01:26:26;;;;;;;5.27;2.67;;;22.00;1.00;;;;;;5074638;28;20164;-79
2022/08/02 01:29:10;;;;;;;5.53;2.60;;;22.10;1.00;;;;;;5079627;28;20223;-80
2022/08/02 01:32:09;;;;;;;3.73;2.80;;;22.10;1.00;;;;;;5081559;28;20533;-82
2022/08/02 01:34:53;;;;;;;3.80;2.70;;;22.10;1.00;;;;;;5050993;28;20659;-82
2022/08/02 01:37:48;;;;;;;4.57;2.73;;;22.00;1.00;;;;;;5079826;28;20284;-84
2022/08/02 01:40:22;;;;;;;4.83;2.80;;;21.90;1.00;;;;;;5037819;28;20192;-84
2022/08/02 01:42:51;;;;;;;5.40;2.83;;;21.90;1.00;;;;;;5066855;28;20190;-81
2022/08/02 01:45:20;;;;;;;6.10;2.70;;;21.90;1.00;;;;;;5078400;28;20167;-81
2022/08/02 01:47:47;;;;;;;4.70;3.10;;;22.00;1.00;;;;;;5100729;28;20170;-80
2022/08/02 01:50:16;;;;;;;5.20;2.80;;;22.00;1.00;;;;;;5063723;28;20197;-80
2022/08/02 01:52:50;;;;;;;6.87;2.60;;;22.20;1.00;;;;;;5095793;28;20190;-81
2022/08/02 01:55:22;;;;;;;5.30;2.57;;;22.40;1.00;;;;;;5073230;28;20216;-82
2022/08/02 01:57:52;;;;;;;4.90;2.87;;;22.30;1.00;;;;;;5077405;28;20203;-80
2022/08/02 02:00:21;;;;;;;8.10;3.10;;;22.20;1.00;;;;;;5093540;28;20209;-76
2022/08/02 02:02:48;;;;;;;4.47;2.47;;;22.00;1.00;;;;;;5080034;28;20163;-80
2022/08/02 02:05:17;;;;;;;5.43;2.90;;;21.90;1.00;;;;;;5080816;28;20170;-82
2022/08/02 02:07:44;;;;;;;4.00;2.90;;;21.80;1.00;;;;;;5098686;28;20181;-82
2022/08/02 02:10:14;;;;;;;6.47;3.00;;;21.70;1.00;;;;;;5084227;28;20163;-81
2022/08/02 02:12:48;;;;;;;4.43;2.50;;;21.60;1.00;;;;;;5098822;28;20154;-80
2022/08/02 02:15:14;;;;;;;5.57;2.80;;;21.40;1.00;;;;;;5083192;28;20180;-81
2022/08/02 02:17:46;;;;;;;5.37;3.00;;;21.20;1.00;;;;;;5059924;28;20205;-81
2022/08/02 02:20:15;;;;;;;5.30;3.10;;;21.30;1.00;;;;;;5080358;28;20759;-81
2022/08/02 02:22:42;;;;;;;4.47;2.80;;;21.20;1.00;;;;;;5081467;28;20355;-83
2022/08/02 02:25:09;;;;;;;5.10;3.17;;;21.10;1.00;;;;;;5080984;28;20268;-84
2022/08/02 02:27:36;;;;;;;5.40;3.50;;;20.90;1.00;;;;;;5078623;28;20199;-81
2022/08/02 02:30:04;;;;;;;6.43;2.90;;;20.80;1.00;;;;;;5059033;28;20261;-81
2022/08/02 02:32:33;;;;;;;4.07;2.97;;;20.70;1.00;;;;;;5076654;28;20165;-84
2022/08/02 02:35:01;;;;;;;6.03;3.10;;;20.80;1.00;;;;;;5077321;28;20206;-83
2022/08/02 02:37:36;;;;;;;4.97;3.20;;;20.80;1.00;;;;;;5077229;28;20285;-85
2022/08/02 02:40:06;;;;;;;6.07;3.17;;;20.90;1.00;;;;;;5076844;28;20171;-81
2022/08/02 02:42:35;;;;;;;5.90;3.10;;;20.80;1.00;;;;;;5075872;28;20595;-85
2022/08/02 02:45:02;;;;;;;5.87;3.20;;;20.70;1.00;;;;;;5057005;28;20660;-83
2022/08/02 02:47:31;;;;;;;8.00;3.40;;;20.60;1.00;;;;;;5058435;28;20263;-81
2022/08/02 02:49:58;;;;;;;4.00;3.03;;;20.80;1.00;;;;;;5058389;28;20191;-82
2022/08/02 02:52:25;;;;;;;5.30;3.30;;;20.70;1.00;;;;;;5058039;28;20720;-84
2022/08/02 02:54:52;;;;;;;4.87;3.27;;;20.60;1.00;;;;;;5076056;28;20178;-81
2022/08/02 02:57:19;;;;;;;5.93;3.17;;;20.50;1.00;;;;;;5075667;28;20199;-82
2022/08/02 02:59:46;;;;;;;5.60;3.73;;;20.70;1.00;;;;;;5086398;28;20170;-80
2022/08/02 03:02:13;;;;;;;5.17;3.67;;;20.50;1.00;;;;;;5086247;28;20193;-85
2022/08/02 03:04:40;;;;;;;6.57;3.67;;;20.40;1.00;;;;;;5076277;28;20176;-85
2022/08/02 03:07:07;;;;;;;4.53;3.20;;;20.30;1.00;;;;;;5057875;28;20585;-81
2022/08/02 03:09:33;;;;;;;5.17;3.40;;;20.30;1.00;;;;;;5057785;28;20179;-81
2022/08/02 03:11:59;;;;;;;5.67;3.70;;;20.20;1.00;;;;;;5075183;28;20178;-83
2022/08/02 03:14:25;;;;;;;4.27;3.50;;;20.20;1.00;;;;;;5075613;28;20511;-84
2022/08/02 03:16:54;;;;;;;7.80;3.50;;;20.20;1.00;;;;;;5058301;28;20179;-81
2022/08/02 03:19:21;;;;;;;5.50;3.87;;;20.30;1.00;;;;;;5075655;28;20551;-83
2022/08/02 03:21:48;;;;;;;5.27;4.07;;;20.40;1.00;;;;;;5075870;28;20244;-85
2022/08/02 03:24:14;;;;;;;5.43;3.73;;;20.30;1.00;;;;;;5057897;28;21098;-83
2022/08/02 03:26:40;;;;;;;6.23;3.90;;;20.30;1.00;;;;;;5074979;28;20168;-84
2022/08/02 03:29:07;;;;;;;5.90;4.10;;;20.40;1.00;;;;;;5076303;28;20166;-85
2022/08/02 03:31:39;;;;;;;3.83;3.30;;;20.40;1.00;;;;;;5076897;28;20165;-82
2022/08/02 03:34:05;;;;;;;4.47;3.93;;;20.50;1.00;;;;;;5057843;28;20209;-83
2022/08/02 03:36:33;;;;;;;6.17;4.63;;;20.50;1.00;;;;;;5075571;28;20175;-84
2022/08/02 03:39:01;;;;;;;7.53;4.37;;;20.50;1.00;;;;;;5057865;28;20247;-84
2022/08/02 03:41:28;;;;;;;5.57;4.63;;;20.50;1.00;;;;;;5075188;28;20165;-83
2022/08/02 03:43:54;;;;;;;6.30;5.20;;;20.30;1.00;;;;;;5075110;28;20192;-80
2022/08/02 04:23:15;;;;;;;11.70;6.00;;;19.70;29.40;;;;;;5041981;28;20200;-89
2022/08/02 04:26:22;;;;;;;10.30;6.43;;;19.70;30.20;;;;;;5015590;28;20166;-91
2022/08/02 04:33:37;;;;;;;;;;;;;;;;;;;;;
2022/08/02 04:36:40;;;;;;;14.57;5.97;;;19.60;36.70;;;;;;5026284;28;20179;-90
2022/08/02 04:39:37;;;;;;;14.27;6.10;;;19.70;38.40;;;;;;5020091;28;20212;-91
2022/08/02 04:42:29;;;;;;;13.43;6.20;;;19.90;37.70;;;;;;5019716;28;20183;-90
2022/08/02 04:48:41;;;;;;;10.17;6.50;;;19.90;29.40;;;;;;5036927;28;20208;-90
2022/08/02 04:51:33;;;;;;;9.73;6.40;;;20.00;29.10;;;;;;5036839;28;20167;-91
2022/08/02 05:13:57;;;;;;;9.40;7.33;;;19.60;42.80;;;;;;4977271;28;20179;-91
2022/08/02 05:16:55;;;;;;;;;;;;;;;;;;;;;
2022/08/02 05:24:13;;;;;;;11.00;7.43;;;19.40;49.20;;;;;;5059932;28;20192;-92
2022/08/02 05:33:11;;;;;;;10.30;8.00;;;19.40;46.10;;;;;;5044968;28;20177;-90
2022/08/02 05:42:49;;;;;;;11.07;7.73;;;19.30;53.00;;;;;;5042114;28;20169;-91
2022/08/02 05:45:36;;;;;;;12.03;8.17;;;19.40;50.30;;;;;;5038196;28;20209;-91
2022/08/02 05:58:28;;;;;;;10.50;7.80;;;19.60;44.10;;;;;;5043302;28;20234;-89
2022/08/02 06:01:47;;;;;;;;;;;;;;;;;;;;;
2022/08/02 06:05:07;;;;;;;13.60;8.63;;;19.70;39.00;;;;;;5042598;28;20163;-89
2022/08/02 06:07:57;;;;;;;9.67;7.73;;;19.70;36.50;;;;;;5027834;28;20163;-89
2022/08/02 06:11:14;;;;;;;10.63;8.20;;;19.70;35.30;;;;;;5026314;28;20205;-90
2022/08/02 06:17:58;;;;;;;11.93;7.67;;;19.70;33.20;;;;;;5037404;28;20351;-90
2022/08/02 06:21:15;;;;;;;10.43;7.37;;;19.80;31.50;;;;;;5024877;28;20171;-89
2022/08/02 06:24:41;;;;;;;10.87;7.17;;;20.00;26.80;;;;;;5040684;28;20252;-88
2022/08/02 06:28:08;;;;;;;10.43;7.10;;;20.10;21.80;;;;;;5058023;28;20207;-88
2022/08/02 06:31:48;;;;;;;8.67;6.70;;;20.40;14.70;;;;;;5483249;22;20217;-90
2022/08/02 06:35:07;;;;;;;10.10;7.20;;;20.60;1.00;;;;;;5062669;28;20252;-90
2022/08/02 06:38:05;;;;;;;7.13;6.17;;;20.60;1.00;;;;;;5061779;28;20209;-91
2022/08/02 06:41:26;;;;;;;9.23;5.43;;;20.50;1.00;;;;;;5070458;28;20233;-90
2022/08/02 06:47:54;;;;;;;6.40;4.17;;;20.40;1.00;;;;;;5070606;28;20183;-90
2022/08/02 06:57:48;;;;;;;8.87;3.90;;;20.80;1.00;;;;;;5067282;28;20199;-91
2022/08/02 07:00:49;;;;;;;6.70;4.00;;;20.90;1.00;;;;;;5067427;28;20212;-91
2022/08/02 07:04:37;;;;;;;;;;;;;;;;;;;;;
2022/08/02 07:07:40;;;;;;;4.93;3.43;;;21.00;1.00;;;;;;5078624;28;20182;-91
2022/08/02 07:10:13;;;;;;;8.90;4.00;;;21.00;1.00;;;;;;5079350;28;20185;-90
2022/08/02 07:13:11;;;;;;;5.83;3.40;;;20.90;1.00;;;;;;5061971;28;20172;-91
2022/08/02 07:19:55;;;;;;;4.70;2.83;;;21.30;1.00;;;;;;5059209;28;20332;-90
2022/08/02 07:22:51;;;;;;;5.30;3.43;;;21.20;1.00;;;;;;5034509;28;20196;-90
2022/08/02 07:25:48;;;;;;;5.20;3.40;;;21.20;1.00;;;;;;5038435;28;20190;-92
2022/08/02 07:29:02;;;;;;;4.87;3.40;;;21.40;1.00;;;;;;5039287;28;20196;-93
2022/08/02 07:31:37;;;;;;;6.90;3.33;;;21.40;1.00;;;;;;5036087;28;20189;-92
2022/08/02 07:35:10;;;;;;;8.20;3.63;;;21.60;1.00;;;;;;5001446;28;20196;-92
2022/08/02 07:41:41;;;;;;;4.87;3.00;;;21.70;1.00;;;;;;5037953;28;20142;-91
2022/08/02 07:44:38;;;;;;;6.17;2.50;;;21.80;1.00;;;;;;5032965;28;20233;-90
2022/08/02 07:47:16;;;;;;;4.80;2.80;;;21.80;1.00;;;;;;5022948;28;20179;-91
2022/08/02 07:50:24;;;;;;;6.47;3.23;;;21.90;1.00;;;;;;5021880;28;20186;-91
2022/08/02 07:53:19;;;;;;;4.87;3.07;;;22.10;1.00;;;;;;5037521;28;20206;-91
2022/08/02 07:56:20;;;;;;;7.03;3.23;;;22.20;1.00;;;;;;5036861;28;20626;-92
2022/08/02 07:59:11;;;;;;;5.50;2.60;;;22.30;1.00;;;;;;5020087;28;20226;-92
2022/08/02 08:02:07;;;;;;;4.53;2.97;;;22.40;1.00;;;;;;5013310;28;20219;-92
2022/08/02 08:05:27;;;;;;;5.97;2.53;;;22.50;1.00;;;;;;5037384;28;20361;-91
2022/08/02 08:12:05;;;;;;;5.07;2.60;;;22.70;1.00;;;;;;5038683;28;20184;-91
2022/08/02 08:15:01;;;;;;;4.70;2.77;;;22.80;1.00;;;;;;5036874;28;20169;-90
2022/08/02 08:21:51;;;;;;;5.27;2.23;;;22.90;1.00;;;;;;5039086;28;20218;-92
2022/08/02 08:24:31;;;;;;;7.30;2.07;;;22.90;1.00;;;;;;5016117;28;20188;-91
2022/08/02 08:27:29;;;;;;;4.80;2.30;;;22.80;1.00;;;;;;5008977;28;20179;-91
2022/08/02 08:30:11;;;;;;;5.60;2.23;;;22.90;1.00;;;;;;5012651;28;20183;-89
2022/08/02 08:36:31;;;;;;;5.00;2.53;;;23.00;1.00;;;;;;5028837;28;20223;-92
2022/08/02 08:39:31;;;;;;;4.03;2.07;;;23.10;1.00;;;;;;5029676;28;20236;-90
2022/08/02 08:42:50;;;;;;;;;;;;;;;;;;;;;
2022/08/02 08:45:28;;;;;;;4.03;2.13;;;23.20;1.00;;;;;;5026396;28;20218;-91
2022/08/02 08:48:20;;;;;;;6.13;2.17;;;23.40;1.00;;;;;;5027655;28;20176;-92
2022/08/02 08:51:14;;;;;;;4.67;1.73;;;23.50;1.00;;;;;;5027782;28;20659;-92
2022/08/02 08:54:20;;;;;;;4.63;2.13;;;23.60;99.90;;;;;;5027964;28;20181;-92
2022/08/02 08:56:47;;;;;;;5.00;1.90;;;23.80;99.90;;;;;;5030316;28;20267;-94
2022/08/02 08:59:25;;;;;;;3.87;1.97;;;23.80;99.90;;;;;;5046180;28;20247;-92
2022/08/02 09:02:10;;;;;;;4.63;2.43;;;23.80;99.90;;;;;;5046333;28;20184;-91
2022/08/02 09:04:47;;;;;;;7.43;2.50;;;23.90;99.90;;;;;;5029972;28;20189;-93
2022/08/02 09:07:23;;;;;;;6.37;2.33;;;24.10;99.90;;;;;;5031331;28;20193;-92
2022/08/02 09:10:26;;;;;;;4.53;1.90;;;24.20;99.90;;;;;;5033521;28;20172;-92
2022/08/02 09:13:30;;;;;;;5.47;2.00;;;24.30;99.90;;;;;;5032915;28;20176;-90
2022/08/02 09:16:58;;;;;;;5.33;2.10;;;24.30;99.90;;;;;;5048015;28;20180;-92
2022/08/02 09:19:28;;;;;;;6.33;2.00;;;24.50;99.90;;;;;;5053768;28;20228;-92
2022/08/02 09:22:22;;;;;;;5.20;1.97;;;24.60;99.90;;;;;;5039185;28;20158;-92
2022/08/02 09:25:17;;;;;;;3.43;1.80;;;24.60;99.90;;;;;;5031331;28;20173;-90
2022/08/02 09:27:59;;;;;;;3.23;1.70;;;24.60;99.90;;;;;;5032585;28;20208;-94
2022/08/02 09:31:11;;;;;;;4.67;2.17;;;24.70;62.50;;;;;;5033534;28;20193;-91
2022/08/02 09:36:59;;;;;;;6.17;2.67;;;24.40;99.90;;;;;;5048447;28;20184;-91
2022/08/02 09:39:44;;;;;;;3.77;2.27;;;24.40;99.90;;;;;;5030863;28;20675;-93
2022/08/02 09:42:22;;;;;;;6.30;2.47;;;24.40;99.90;;;;;;5042927;28;20663;-93
2022/08/02 09:45:18;;;;;;;6.60;2.30;;;24.60;99.90;;;;;;5029925;28;20200;-91
2022/08/02 09:47:48;;;;;;;5.23;2.37;;;24.70;99.90;;;;;;5057248;28;20271;-92
2022/08/02 09:50:20;;;;;;;6.30;2.40;;;24.90;56.70;;;;;;5056323;28;20177;-91
2022/08/02 09:53:12;;;;;;;3.27;1.90;;;25.10;33.50;;;;;;5029981;28;20208;-92
2022/08/02 09:56:22;;;;;;;5.50;2.27;;;25.00;1.00;;;;;;5034270;28;20177;-92
2022/08/02 09:59:15;;;;;;;5.23;2.43;;;24.90;36.30;;;;;;5032793;28;20240;-93
2022/08/02 10:01:44;;;;;;;4.13;2.53;;;24.60;99.90;;;;;;5034491;28;20172;-94
2022/08/02 10:04:11;;;;;;;4.37;2.30;;;24.60;99.90;;;;;;5029740;28;20189;-94
2022/08/02 10:06:43;;;;;;;3.87;2.20;;;24.60;99.90;;;;;;5041757;28;20188;-93
2022/08/02 10:09:35;;;;;;;3.40;1.77;;;24.70;99.90;;;;;;5055735;28;20180;-93
2022/08/02 10:12:26;;;;;;;3.00;2.00;;;24.90;1.00;;;;;;5032230;28;20252;-94
2022/08/02 10:14:59;;;;;;;6.33;1.80;;;25.10;1.00;;;;;;5029350;28;20208;-91
2022/08/02 10:17:30;;;;;;;3.90;2.00;;;25.40;1.00;;;;;;5016447;28;20202;-89
2022/08/02 10:20:30;;;;;;;3.33;1.83;;;25.50;99.90;;;;;;5037494;28;20229;-90
2022/08/02 10:23:08;;;;;;;7.17;2.57;;;25.70;99.90;;;;;;5020174;28;20625;-90
2022/08/02 10:25:38;;;;;;;6.90;3.10;;;25.50;99.90;;;;;;5002173;28;20174;-95
2022/08/02 10:28:07;;;;;;;6.40;2.10;;;25.50;99.90;;;;;;5034458;28;20178;-92
2022/08/02 10:30:57;;;;;;;4.33;1.83;;;25.60;1.00;;;;;;5032967;28;20193;-94
2022/08/02 10:33:25;;;;;;;6.63;2.07;;;25.50;1.00;;;;;;5034834;28;20197;-88
2022/08/02 10:35:58;;;;;;;9.17;7.30;;;25.50;99.90;;;;;;5018111;28;20181;-93
2022/08/02 10:38:36;;;;;;;3.87;1.97;;;25.60;99.90;;;;;;5016990;28;20210;-94
2022/08/02 10:41:06;;;;;;;3.10;1.77;;;25.60;1.00;;;;;;5030628;28;20209;-89
2022/08/02 10:43:35;;;;;;;3.13;1.40;;;25.60;1.00;;;;;;5014509;28;20188;-91
2022/08/02 10:46:26;;;;;;;4.90;1.63;;;25.60;91.90;;;;;;5030598;28;20182;-91
2022/08/02 10:49:20;;;;;;;3.77;1.60;;;25.60;1.00;;;;;;5008939;28;20188;-92
2022/08/02 10:52:04;;;;;;;3.67;1.60;;;25.80;1.00;;;;;;5013221;28;20239;-93
2022/08/02 10:54:34;;;;;;;3.67;1.90;;;26.00;99.90;;;;;;5009707;28;20170;-93
2022/08/02 10:57:00;;;;;;;4.27;2.03;;;26.20;35.90;;;;;;5031902;28;20524;-89
2022/08/02 11:00:14;;;;;;;6.03;2.70;;;26.30;1.00;;;;;;5037570;28;20217;-92
2022/08/02 11:02:42;;;;;;;4.60;3.10;;;26.30;1.00;;;;;;5026883;28;20209;-95
2022/08/02 11:05:48;;;;;;;10.17;3.93;;;26.30;1.00;;;;;;5006179;28;20189;-93
2022/08/02 11:08:21;;;;;;;5.90;3.33;;;26.40;99.90;;;;;;5022448;28;20174;-88
2022/08/02 11:10:47;;;;;;;3.83;1.90;;;26.50;99.90;;;;;;5008068;28;20209;-89
2022/08/02 11:13:18;;;;;;;2.53;1.80;;;26.60;1.00;;;;;;5007312;28;20174;-94
2022/08/02 11:15:55;;;;;;;3.80;1.50;;;26.50;99.90;;;;;;5015929;28;20645;-88
2022/08/02 11:18:43;;;;;;;3.47;1.60;;;26.30;1.00;;;;;;5031933;28;20222;-91
2022/08/02 11:21:30;;;;;;;2.40;1.47;;;26.40;99.90;;;;;;5003359;28;20702;-88
2022/08/02 11:24:32;;;;;;;3.57;1.70;;;26.40;96.80;;;;;;5034087;28;20179;-88
2022/08/02 11:27:21;;;;;;;2.43;1.57;;;26.20;1.00;;;;;;4934632;29;20204;-93
2022/08/02 11:30:10;;;;;;;5.60;1.90;;;26.50;1.00;;;;;;4990445;28;20186;-93
2022/08/02 11:32:38;;;;;;;3.57;1.60;;;26.80;99.90;;;;;;5007956;28;20197;-96
2022/08/02 11:35:21;;;;;;;3.27;1.40;;;27.10;1.00;;;;;;5027560;28;20194;-96
2022/08/02 11:38:10;;;;;;;3.37;1.30;;;27.00;1.00;;;;;;5023518;28;20552;-93
2022/08/02 11:40:43;;;;;;;1.50;1.20;;;27.10;99.90;;;;;;5022764;28;20192;-93
2022/08/02 11:43:22;;;;;;;2.70;1.40;;;27.10;99.90;;;;;;5005849;28;20196;-95
2022/08/02 11:46:13;;;;;;;2.40;1.40;;;27.10;99.90;;;;;;5008036;28;20198;-96
2022/08/02 11:48:40;;;;;;;3.03;1.90;;;27.00;1.00;;;;;;5008018;28;20176;-93
2022/08/02 11:51:15;;;;;;;4.80;1.60;;;27.20;1.00;;;;;;5016609;28;20168;-92
2022/08/02 11:54:21;;;;;;;3.73;1.60;;;27.20;99.90;;;;;;5021632;28;20180;-89
2022/08/02 11:56:48;;;;;;;2.97;1.20;;;27.30;99.90;;;;;;5021009;28;20206;-90
2022/08/02 11:59:14;;;;;;;4.73;1.60;;;27.20;99.90;;;;;;5038968;28;20256;-92
2022/08/02 12:01:40;;;;;;;2.43;1.30;;;27.30;99.90;;;;;;5021676;28;20167;-89
2022/08/02 12:04:19;;;;;;;3.03;1.30;;;27.10;1.00;;;;;;5020148;28;20182;-91
2022/08/02 12:07:05;;;;;;;4.00;1.60;;;27.00;1.00;;;;;;5034007;28;20168;-90
2022/08/02 12:12:58;;;;;;;5.67;1.57;;;27.30;1.00;;;;;;5024961;28;20157;-93
2022/08/02 12:15:45;;;;;;;2.97;1.40;;;27.20;99.90;;;;;;5026393;28;20244;-93
2022/08/02 12:21:25;;;;;;;3.27;1.33;;;27.10;99.90;;;;;;5024203;28;20237;-92
2022/08/02 12:24:00;;;;;;;4.50;1.83;;;27.20;99.90;;;;;;5008579;28;20199;-94
2022/08/02 12:26:40;;;;;;;2.90;1.33;;;27.30;1.00;;;;;;5009660;28;20209;-94
2022/08/02 12:29:06;;;;;;;3.30;1.43;;;27.50;1.00;;;;;;5029932;28;20211;-95
2022/08/02 12:31:59;;;;;;;2.33;1.30;;;27.50;1.00;;;;;;5012814;28;20178;-92
2022/08/02 12:34:28;;;;;;;5.32;1.52;;;27.70;1.00;;;;;;5020698;28;20159;-93
2022/08/02 12:37:02;;;;;;;5.07;1.90;;;27.90;99.90;;;;;;5038215;28;20162;-90
2022/08/02 12:39:49;;;;;;;7.93;1.90;;;28.10;99.90;;;;;;5046296;28;20243;-91
2022/08/02 12:42:22;;;;;;;3.33;1.37;;;28.20;99.90;;;;;;5034229;28;20178;-91
2022/08/02 12:45:13;;;;;;;4.03;1.20;;;28.20;99.90;;;;;;5014808;28;20203;-91
2022/08/02 12:47:52;;;;;;;3.93;1.30;;;28.20;99.90;;;;;;5012987;28;20182;-94
2022/08/02 12:50:54;;;;;;;2.87;1.10;;;27.90;1.00;;;;;;5027520;28;20629;-93
2022/08/02 12:53:47;;;;;;;4.75;1.30;;;27.80;1.00;;;;;;5022849;28;20157;-93
2022/08/02 12:56:32;;;;;;;2.87;1.37;;;27.70;7.10;;;;;;5004108;28;20655;-93
2022/08/02 12:58:59;;;;;;;3.88;1.30;;;27.80;1.00;;;;;;5019356;28;20579;-95
2022/08/02 13:01:27;;;;;;;3.00;1.20;;;27.70;1.00;;;;;;5003628;28;20178;-95
2022/08/02 13:03:54;;;;;;;3.28;1.30;;;27.90;1.00;;;;;;5003619;28;20180;-92
2022/08/02 13:06:37;;;;;;;2.07;1.20;;;28.00;1.00;;;;;;5009466;28;20219;-94
2022/08/02 13:09:12;;;;;;;3.25;1.38;;;28.00;1.00;;;;;;5024815;28;20182;-94
2022/08/02 13:11:39;;;;;;;1.48;1.00;;;28.20;1.00;;;;;;5017340;28;20192;-93
2022/08/02 13:14:13;;;;;;;3.30;1.27;;;28.10;1.00;;;;;;5020977;28;20154;-95
2022/08/02 13:16:45;;;;;;;2.10;1.00;;;28.10;1.00;;;;;;5016737;28;20214;-93
2022/08/02 13:19:14;;;;;;;1.38;1.15;;;27.90;1.00;;;;;;5009103;28;20233;-96
2022/08/02 13:21:45;;;;;;;3.60;1.20;;;28.00;1.00;;;;;;5019141;28;20173;-94
2022/08/02 13:24:14;;;;;;;2.55;1.10;;;28.00;1.00;;;;;;5002231;28;20244;-94
2022/08/02 13:26:54;;;;;;;1.50;1.00;;;27.80;1.00;;;;;;5004071;28;20232;-96
2022/08/02 13:29:22;;;;;;;2.97;1.20;;;27.80;99.90;;;;;;5008235;28;20169;-96
2022/08/02 13:31:47;;;;;;;3.90;1.10;;;27.80;99.90;;;;;;5014714;28;20201;-93
2022/08/02 13:34:15;;;;;;;2.80;1.27;;;27.70;99.90;;;;;;5024662;28;20170;-94
2022/08/02 13:39:56;;;;;;;2.47;1.10;;;28.00;99.90;;;;;;5041609;28;20194;-96
2022/08/02 13:42:39;;;;;;;2.30;1.50;;;28.10;99.90;;;;;;5023453;28;20180;-95
2022/08/02 13:45:08;;;;;;;4.78;1.42;;;28.10;99.90;;;;;;5038582;28;20190;-96
2022/08/02 13:47:38;;;;;;;3.30;1.23;;;28.20;99.90;;;;;;5032010;28;20181;-96
2022/08/02 13:50:39;;;;;;;3.70;1.20;;;28.40;99.90;;;;;;5029053;28;20166;-95
2022/08/02 13:53:33;;;;;;;3.08;1.30;;;28.60;1.00;;;;;;5038757;28;20184;-90
2022/08/02 13:55:59;;;;;;;2.28;1.00;;;28.40;1.00;;;;;;5005796;28;20178;-96
2022/08/02 13:58:28;;;;;;;3.65;1.17;;;28.50;1.00;;;;;;5003813;28;20355;-92
2022/08/02 14:01:00;;;;;;;3.33;1.30;;;28.50;1.00;;;;;;5005771;28;20185;-92
2022/08/02 14:03:26;;;;;;;2.70;1.20;;;28.50;1.00;;;;;;5005817;28;20201;-92
2022/08/02 14:05:52;;;;;;;3.20;1.00;;;28.70;1.00;;;;;;5006903;28;20658;-93
2022/08/02 14:08:21;;;;;;;4.82;1.17;;;28.80;1.00;;;;;;5008431;28;20218;-92
2022/08/02 14:10:49;;;;;;;4.32;1.17;;;28.90;1.00;;;;;;5008116;28;20181;-94
2022/08/02 14:13:16;;;;;;;3.10;1.10;;;29.00;1.00;;;;;;5007321;28;20178;-92
2022/08/02 14:15:43;;;;;;;5.90;1.50;;;29.10;1.00;;;;;;5023783;28;20178;-93
2022/08/02 14:18:09;;;;;;;2.72;1.17;;;29.10;1.00;;;;;;5007745;28;20210;-94
2022/08/02 14:20:35;;;;;;;3.50;1.17;;;29.30;99.90;;;;;;5006660;28;20269;-92
2022/08/02 14:23:02;;;;;;;4.25;1.55;;;29.50;99.90;;;;;;5007377;28;20218;-92
2022/08/02 14:25:29;;;;;;;2.13;1.20;;;29.70;99.90;;;;;;5007467;28;20200;-96
2022/08/02 14:27:57;;;;;;;2.95;1.20;;;29.90;99.90;;;;;;5011137;28;20564;-94
2022/08/02 14:30:23;;;;;;;4.25;1.17;;;30.10;30.60;;;;;;5007426;28;20178;-92
2022/08/02 14:32:50;;;;;;;4.43;1.30;;;30.20;1.00;;;;;;5027129;28;20178;-96
2022/08/02 14:35:16;;;;;;;3.83;1.30;;;30.20;1.00;;;;;;5016550;28;20186;-93
2022/08/02 14:37:41;;;;;;;3.13;1.25;;;29.90;10.00;;;;;;5020484;28;20182;-93
2022/08/02 14:40:07;;;;;;;3.95;1.35;;;29.50;99.90;;;;;;5019714;28;20191;-94
2022/08/02 14:42:33;;;;;;;3.58;1.40;;;29.40;99.90;;;;;;5020611;28;20261;-92
2022/08/02 14:45:00;;;;;;;6.07;1.00;;;29.40;99.90;;;;;;5022334;28;20194;-92
2022/08/02 14:47:26;;;;;;;5.97;1.10;;;29.50;99.90;;;;;;5021797;28;20190;-95
2022/08/02 14:49:52;;;;;;;4.10;1.40;;;29.60;99.90;;;;;;5022219;28;20187;-92
2022/08/02 14:52:18;;;;;;;3.40;1.30;;;29.50;99.90;;;;;;5020257;28;20182;-92
2022/08/02 14:54:46;;;;;;;3.13;1.30;;;29.60;99.90;;;;;;5017839;28;20244;-92
2022/08/02 14:57:14;;;;;;;5.22;1.35;;;29.60;99.90;;;;;;5038107;28;20228;-90
2022/08/02 14:59:44;;;;;;;4.93;1.20;;;29.40;99.90;;;;;;5021057;28;20214;-91
2022/08/02 15:02:13;;;;;;;4.60;1.50;;;29.50;99.90;;;;;;5037737;28;20175;-95
2022/08/02 15:04:40;;;;;;;3.00;1.10;;;29.70;99.90;;;;;;5021233;28;20178;-93
2022/08/02 15:07:07;;;;;;;2.50;1.20;;;30.00;96.50;;;;;;5036308;28;20193;-96
2022/08/02 15:09:34;;;;;;;4.38;1.40;;;30.10;54.30;;;;;;5023874;28;20210;-95
2022/08/02 15:12:02;;;;;;;2.65;0.90;;;30.00;18.80;;;;;;5009590;28;20178;-95
2022/08/02 15:14:29;;;;;;;4.15;1.20;;;29.90;1.00;;;;;;5009713;28;20630;-94
2022/08/02 15:16:55;;;;;;;2.08;1.00;;;29.60;99.90;;;;;;5009667;28;20685;-95
2022/08/02 15:19:28;;;;;;;1.73;1.00;;;29.50;99.90;;;;;;5008284;28;20206;-94
2022/08/02 15:22:05;;;;;;;3.50;1.30;;;29.60;99.90;;;;;;5012941;28;20193;-96
2022/08/02 15:24:31;;;;;;;3.30;1.00;;;29.90;99.90;;;;;;5006566;28;20246;-95
2022/08/02 15:26:58;;;;;;;2.80;1.17;;;29.80;99.90;;;;;;5023019;28;20253;-95
2022/08/02 15:29:25;;;;;;;3.20;1.10;;;29.80;99.90;;;;;;5009646;28;20542;-95
2022/08/02 15:31:53;;;;;;;2.40;1.08;;;29.80;99.90;;;;;;5007845;28;20524;-93
2022/08/02 15:34:19;;;;;;;5.43;1.30;;;29.60;99.90;;;;;;5011620;28;20270;-96
2022/08/02 15:36:44;;;;;;;3.60;1.55;;;29.80;99.90;;;;;;5016061;28;20166;-94
2022/08/02 15:39:11;;;;;;;4.68;1.23;;;29.80;99.90;;;;;;5021716;28;20241;-96
2022/08/02 15:41:37;;;;;;;4.10;1.50;;;29.90;99.90;;;;;;5039342;28;20190;-95
2022/08/02 15:44:06;;;;;;;3.35;1.30;;;30.00;99.90;;;;;;5020123;28;20214;-92
2022/08/02 15:46:36;;;;;;;5.50;1.50;;;30.00;99.90;;;;;;5009683;28;20273;-91
2022/08/02 15:49:02;;;;;;;3.45;1.30;;;30.00;99.90;;;;;;5010407;28;20181;-91
2022/08/02 15:51:32;;;;;;;5.20;1.40;;;30.00;30.50;;;;;;5026237;28;20328;-92
2022/08/02 15:53:59;;;;;;;4.32;1.40;;;29.70;99.90;;;;;;5023167;28;20191;-94
2022/08/02 15:56:39;;;;;;;4.60;1.20;;;29.70;99.90;;;;;;5019722;28;20169;-93
2022/08/02 15:59:08;;;;;;;3.13;1.42;;;29.70;99.90;;;;;;5019827;28;20237;-93
2022/08/02 16:01:55;;;;;;;6.55;1.80;;;29.70;99.90;;;;;;5024037;28;20514;-96
2022/08/02 16:04:21;;;;;;;5.50;1.10;;;29.70;99.90;;;;;;5021854;28;20198;-95
2022/08/02 16:06:47;;;;;;;6.65;1.23;;;29.70;99.90;;;;;;5005293;28;20189;-92
2022/08/02 16:09:12;;;;;;;5.40;1.27;;;29.60;99.90;;;;;;5019064;28;20201;-92
2022/08/02 16:11:41;;;;;;;3.83;1.35;;;29.60;1.00;;;;;;5009362;28;20174;-95
2022/08/02 16:14:13;;;;;;;5.15;1.42;;;29.70;99.90;;;;;;5003982;28;20273;-93
2022/08/02 16:16:40;;;;;;;5.57;1.48;;;29.90;99.90;;;;;;5004186;28;20198;-92
2022/08/02 16:19:08;;;;;;;4.07;2.10;;;30.00;99.90;;;;;;5019739;28;20210;-94